sensor_id;sensor_type;location;lat;lon;timestamp;P1;durP1;ratioP1;P2;durP2;ratioP2
6255;SDS011;3161;48.794;9.784;2023-02-26T00:01:25;6.03;;;1.90;;
6255;SDS011;3161;48.794;9.784;2023-02-26T00:03:55;3.47;;;1.50;;
6255;SDS011;3161;48.794;9.784;2023-02-26T00:06:26;7.43;;;1.47;;
6255;SDS011;3161;48.794;9.784;2023-02-26T00:08:54;1.13;;;1.00;;
6255;SDS011;3161;48.794;9.784;2023-02-26T00:11:22;6.17;;;2.03;;
6255;SDS011;3161;48.794;9.784;2023-02-26T00:13:50;7.73;;;2.50;;
6255;SDS011;3161;48.794;9.784;2023-02-26T00:16:25;5.20;;;1.93;;
6255;SDS011;3161;48.794;9.784;2023-02-26T00:18:55;3.03;;;1.37;;
6255;SDS011;3161;48.794;9.784;2023-02-26T00:21:25;4.23;;;1.67;;
6255;SDS011;3161;48.794;9.784;2023-02-26T00:23:54;3.77;;;2.00;;
6255;SDS011;3161;48.794;9.784;2023-02-26T00:26:23;1.73;;;1.20;;
6255;SDS011;3161;48.794;9.784;2023-02-26T00:28:52;2.90;;;1.50;;
6255;SDS011;3161;48.794;9.784;2023-02-26T00:31:21;1.23;;;1.00;;
6255;SDS011;3161;48.794;9.784;2023-02-26T00:33:50;4.30;;;1.50;;
6255;SDS011;3161;48.794;9.784;2023-02-26T00:36:20;3.10;;;1.27;;
6255;SDS011;3161;48.794;9.784;2023-02-26T00:41:36;2.30;;;1.20;;
6255;SDS011;3161;48.794;9.784;2023-02-26T00:44:04;3.27;;;1.70;;
6255;SDS011;3161;48.794;9.784;2023-02-26T00:46:37;3.00;;;1.60;;
6255;SDS011;3161;48.794;9.784;2023-02-26T00:51:45;2.80;;;1.43;;
6255;SDS011;3161;48.794;9.784;2023-02-26T00:54:20;2.27;;;1.30;;
6255;SDS011;3161;48.794;9.784;2023-02-26T00:56:49;2.80;;;1.80;;
6255;SDS011;3161;48.794;9.784;2023-02-26T00:59:18;2.83;;;1.80;;
6255;SDS011;3161;48.794;9.784;2023-02-26T01:01:46;2.83;;;1.70;;
6255;SDS011;3161;48.794;9.784;2023-02-26T01:04:15;2.00;;;1.80;;
6255;SDS011;3161;48.794;9.784;2023-02-26T01:06:46;3.67;;;1.50;;
6255;SDS011;3161;48.794;9.784;2023-02-26T01:09:23;4.97;;;1.30;;
6255;SDS011;3161;48.794;9.784;2023-02-26T01:11:53;2.90;;;1.53;;
6255;SDS011;3161;48.794;9.784;2023-02-26T01:14:22;1.50;;;1.13;;
6255;SDS011;3161;48.794;9.784;2023-02-26T01:17:01;2.53;;;1.50;;
6255;SDS011;3161;48.794;9.784;2023-02-26T01:19:28;3.40;;;1.80;;
6255;SDS011;3161;48.794;9.784;2023-02-26T01:22:02;2.77;;;1.55;;
6255;SDS011;3161;48.794;9.784;2023-02-26T01:24:28;2.43;;;1.50;;
6255;SDS011;3161;48.794;9.784;2023-02-26T01:26:57;2.33;;;1.30;;
6255;SDS011;3161;48.794;9.784;2023-02-26T01:29:25;1.47;;;1.33;;
6255;SDS011;3161;48.794;9.784;2023-02-26T01:31:55;2.13;;;1.70;;
6255;SDS011;3161;48.794;9.784;2023-02-26T01:34:33;6.83;;;1.57;;
6255;SDS011;3161;48.794;9.784;2023-02-26T01:37:13;2.40;;;1.37;;
6255;SDS011;3161;48.794;9.784;2023-02-26T01:39:44;3.30;;;1.53;;
6255;SDS011;3161;48.794;9.784;2023-02-26T01:42:24;4.93;;;1.73;;
6255;SDS011;3161;48.794;9.784;2023-02-26T01:44:54;3.70;;;1.57;;
6255;SDS011;3161;48.794;9.784;2023-02-26T01:47:34;1.50;;;1.40;;
6255;SDS011;3161;48.794;9.784;2023-02-26T01:50:13;4.70;;;1.90;;
6255;SDS011;3161;48.794;9.784;2023-02-26T01:55:26;2.57;;;1.50;;
6255;SDS011;3161;48.794;9.784;2023-02-26T01:57:56;4.73;;;1.40;;
6255;SDS011;3161;48.794;9.784;2023-02-26T02:00:25;3.00;;;1.20;;
6255;SDS011;3161;48.794;9.784;2023-02-26T02:02:54;2.30;;;1.17;;
6255;SDS011;3161;48.794;9.784;2023-02-26T02:05:33;4.80;;;1.30;;
6255;SDS011;3161;48.794;9.784;2023-02-26T02:08:02;2.73;;;1.33;;
6255;SDS011;3161;48.794;9.784;2023-02-26T02:10:29;2.53;;;1.23;;
6255;SDS011;3161;48.794;9.784;2023-02-26T02:13:15;1.60;;;1.17;;
6255;SDS011;3161;48.794;9.784;2023-02-26T02:15:53;3.63;;;1.50;;
6255;SDS011;3161;48.794;9.784;2023-02-26T02:19:21;4.40;;;1.23;;
6255;SDS011;3161;48.794;9.784;2023-02-26T02:21:06;2.90;;;1.50;;
6255;SDS011;3161;48.794;9.784;2023-02-26T02:23:59;4.63;;;1.53;;
6255;SDS011;3161;48.794;9.784;2023-02-26T02:26:34;2.33;;;1.30;;
6255;SDS011;3161;48.794;9.784;2023-02-26T02:31:43;1.27;;;1.17;;
6255;SDS011;3161;48.794;9.784;2023-02-26T02:34:31;5.53;;;2.50;;
6255;SDS011;3161;48.794;9.784;2023-02-26T02:37:13;4.00;;;1.30;;
6255;SDS011;3161;48.794;9.784;2023-02-26T02:39:50;10.77;;;1.40;;
6255;SDS011;3161;48.794;9.784;2023-02-26T02:42:33;4.23;;;1.60;;
6255;SDS011;3161;48.794;9.784;2023-02-26T02:44:57;2.83;;;1.73;;
6255;SDS011;3161;48.794;9.784;2023-02-26T02:47:26;1.67;;;1.47;;
6255;SDS011;3161;48.794;9.784;2023-02-26T02:52:39;1.47;;;1.17;;
6255;SDS011;3161;48.794;9.784;2023-02-26T02:55:12;1.43;;;1.00;;
6255;SDS011;3161;48.794;9.784;2023-02-26T02:57:38;8.13;;;1.50;;
6255;SDS011;3161;48.794;9.784;2023-02-26T03:00:08;3.03;;;1.47;;
6255;SDS011;3161;48.794;9.784;2023-02-26T03:02:39;3.20;;;1.10;;
6255;SDS011;3161;48.794;9.784;2023-02-26T03:05:10;2.87;;;1.47;;
6255;SDS011;3161;48.794;9.784;2023-02-26T03:07:42;6.70;;;1.27;;
6255;SDS011;3161;48.794;9.784;2023-02-26T03:10:12;2.00;;;1.37;;
6255;SDS011;3161;48.794;9.784;2023-02-26T03:12:40;1.70;;;0.93;;
6255;SDS011;3161;48.794;9.784;2023-02-26T03:15:08;2.63;;;1.27;;
6255;SDS011;3161;48.794;9.784;2023-02-26T03:17:48;3.10;;;1.20;;
6255;SDS011;3161;48.794;9.784;2023-02-26T03:20:33;2.87;;;1.13;;
6255;SDS011;3161;48.794;9.784;2023-02-26T03:23:38;3.07;;;1.13;;
6255;SDS011;3161;48.794;9.784;2023-02-26T03:25:52;4.77;;;1.47;;
6255;SDS011;3161;48.794;9.784;2023-02-26T03:28:50;5.90;;;1.90;;
6255;SDS011;3161;48.794;9.784;2023-02-26T03:31:25;2.90;;;1.30;;
6255;SDS011;3161;48.794;9.784;2023-02-26T03:34:05;4.97;;;1.27;;
6255;SDS011;3161;48.794;9.784;2023-02-26T03:36:45;5.00;;;1.70;;
6255;SDS011;3161;48.794;9.784;2023-02-26T03:39:11;4.63;;;1.20;;
6255;SDS011;3161;48.794;9.784;2023-02-26T03:42:03;3.57;;;1.47;;
6255;SDS011;3161;48.794;9.784;2023-02-26T03:44:30;4.13;;;1.30;;
6255;SDS011;3161;48.794;9.784;2023-02-26T03:47:04;4.70;;;1.30;;
6255;SDS011;3161;48.794;9.784;2023-02-26T03:49:37;2.77;;;1.60;;
6255;SDS011;3161;48.794;9.784;2023-02-26T03:52:08;4.33;;;1.30;;
6255;SDS011;3161;48.794;9.784;2023-02-26T03:54:38;1.50;;;1.37;;
6255;SDS011;3161;48.794;9.784;2023-02-26T03:57:10;2.50;;;1.23;;
6255;SDS011;3161;48.794;9.784;2023-02-26T03:59:38;4.23;;;1.30;;
6255;SDS011;3161;48.794;9.784;2023-02-26T04:02:13;4.60;;;1.20;;
6255;SDS011;3161;48.794;9.784;2023-02-26T04:05:00;4.77;;;1.20;;
6255;SDS011;3161;48.794;9.784;2023-02-26T04:07:29;3.83;;;1.30;;
6255;SDS011;3161;48.794;9.784;2023-02-26T04:09:57;5.33;;;1.60;;
6255;SDS011;3161;48.794;9.784;2023-02-26T04:12:26;4.60;;;1.50;;
6255;SDS011;3161;48.794;9.784;2023-02-26T04:14:54;4.20;;;1.30;;
6255;SDS011;3161;48.794;9.784;2023-02-26T04:17:23;3.47;;;1.40;;
6255;SDS011;3161;48.794;9.784;2023-02-26T04:19:51;3.00;;;1.40;;
6255;SDS011;3161;48.794;9.784;2023-02-26T04:22:18;9.80;;;1.87;;
6255;SDS011;3161;48.794;9.784;2023-02-26T04:24:46;6.13;;;1.90;;
6255;SDS011;3161;48.794;9.784;2023-02-26T04:27:13;8.90;;;1.57;;
6255;SDS011;3161;48.794;9.784;2023-02-26T04:29:41;2.87;;;1.67;;
6255;SDS011;3161;48.794;9.784;2023-02-26T04:32:09;4.87;;;1.33;;
6255;SDS011;3161;48.794;9.784;2023-02-26T04:34:36;7.83;;;1.60;;
6255;SDS011;3161;48.794;9.784;2023-02-26T04:37:04;3.33;;;1.45;;
6255;SDS011;3161;48.794;9.784;2023-02-26T04:39:31;3.70;;;1.77;;
6255;SDS011;3161;48.794;9.784;2023-02-26T04:41:59;2.23;;;1.30;;
6255;SDS011;3161;48.794;9.784;2023-02-26T04:44:26;3.20;;;1.20;;
6255;SDS011;3161;48.794;9.784;2023-02-26T04:46:54;3.60;;;1.87;;
6255;SDS011;3161;48.794;9.784;2023-02-26T04:49:21;1.57;;;1.40;;
6255;SDS011;3161;48.794;9.784;2023-02-26T04:51:49;2.83;;;1.33;;
6255;SDS011;3161;48.794;9.784;2023-02-26T04:54:16;4.63;;;1.50;;
6255;SDS011;3161;48.794;9.784;2023-02-26T04:56:44;1.47;;;1.00;;
6255;SDS011;3161;48.794;9.784;2023-02-26T04:59:11;3.67;;;1.70;;
6255;SDS011;3161;48.794;9.784;2023-02-26T05:01:39;2.13;;;1.33;;
6255;SDS011;3161;48.794;9.784;2023-02-26T05:04:06;3.10;;;1.60;;
6255;SDS011;3161;48.794;9.784;2023-02-26T05:06:34;2.13;;;1.27;;
6255;SDS011;3161;48.794;9.784;2023-02-26T05:09:01;2.67;;;1.57;;
6255;SDS011;3161;48.794;9.784;2023-02-26T05:11:31;4.50;;;1.93;;
6255;SDS011;3161;48.794;9.784;2023-02-26T05:13:58;3.13;;;1.60;;
6255;SDS011;3161;48.794;9.784;2023-02-26T05:16:26;4.70;;;1.47;;
6255;SDS011;3161;48.794;9.784;2023-02-26T05:18:53;3.80;;;1.43;;
6255;SDS011;3161;48.794;9.784;2023-02-26T05:21:21;2.33;;;1.63;;
6255;SDS011;3161;48.794;9.784;2023-02-26T05:23:49;3.37;;;1.40;;
6255;SDS011;3161;48.794;9.784;2023-02-26T05:26:16;7.70;;;1.90;;
6255;SDS011;3161;48.794;9.784;2023-02-26T05:28:44;2.07;;;1.33;;
6255;SDS011;3161;48.794;9.784;2023-02-26T05:31:12;4.20;;;2.00;;
6255;SDS011;3161;48.794;9.784;2023-02-26T05:33:40;3.30;;;1.70;;
6255;SDS011;3161;48.794;9.784;2023-02-26T05:36:08;4.70;;;2.13;;
6255;SDS011;3161;48.794;9.784;2023-02-26T05:38:36;1.70;;;1.57;;
6255;SDS011;3161;48.794;9.784;2023-02-26T05:41:03;2.77;;;1.47;;
6255;SDS011;3161;48.794;9.784;2023-02-26T05:43:31;2.03;;;1.30;;
6255;SDS011;3161;48.794;9.784;2023-02-26T05:45:58;4.97;;;1.90;;
6255;SDS011;3161;48.794;9.784;2023-02-26T05:48:26;4.10;;;2.23;;
6255;SDS011;3161;48.794;9.784;2023-02-26T05:50:54;2.67;;;1.87;;
6255;SDS011;3161;48.794;9.784;2023-02-26T05:53:21;3.90;;;1.80;;
6255;SDS011;3161;48.794;9.784;2023-02-26T05:55:49;4.07;;;1.77;;
6255;SDS011;3161;48.794;9.784;2023-02-26T05:58:19;4.47;;;1.97;;
6255;SDS011;3161;48.794;9.784;2023-02-26T06:00:46;2.03;;;1.63;;
6255;SDS011;3161;48.794;9.784;2023-02-26T06:03:14;6.23;;;1.87;;
6255;SDS011;3161;48.794;9.784;2023-02-26T06:05:42;2.80;;;1.70;;
6255;SDS011;3161;48.794;9.784;2023-02-26T06:08:09;7.80;;;2.10;;
6255;SDS011;3161;48.794;9.784;2023-02-26T06:10:38;4.97;;;2.23;;
6255;SDS011;3161;48.794;9.784;2023-02-26T06:13:06;3.90;;;1.83;;
6255;SDS011;3161;48.794;9.784;2023-02-26T06:15:33;6.83;;;1.87;;
6255;SDS011;3161;48.794;9.784;2023-02-26T06:18:01;8.30;;;2.23;;
6255;SDS011;3161;48.794;9.784;2023-02-26T06:20:29;6.77;;;1.93;;
6255;SDS011;3161;48.794;9.784;2023-02-26T06:22:56;18.70;;;8.10;;
6255;SDS011;3161;48.794;9.784;2023-02-26T06:25:24;14.93;;;4.67;;
6255;SDS011;3161;48.794;9.784;2023-02-26T06:27:51;29.93;;;12.97;;
6255;SDS011;3161;48.794;9.784;2023-02-26T06:30:19;46.43;;;20.50;;
6255;SDS011;3161;48.794;9.784;2023-02-26T06:32:48;28.50;;;13.90;;
6255;SDS011;3161;48.794;9.784;2023-02-26T06:35:15;29.87;;;13.97;;
6255;SDS011;3161;48.794;9.784;2023-02-26T06:37:43;19.97;;;7.90;;
6255;SDS011;3161;48.794;9.784;2023-02-26T06:40:11;24.60;;;10.43;;
6255;SDS011;3161;48.794;9.784;2023-02-26T06:42:39;19.70;;;10.87;;
6255;SDS011;3161;48.794;9.784;2023-02-26T06:45:07;14.07;;;7.33;;
6255;SDS011;3161;48.794;9.784;2023-02-26T06:47:35;6.97;;;4.07;;
6255;SDS011;3161;48.794;9.784;2023-02-26T06:50:02;4.87;;;3.50;;
6255;SDS011;3161;48.794;9.784;2023-02-26T06:52:30;6.47;;;3.73;;
6255;SDS011;3161;48.794;9.784;2023-02-26T06:54:58;3.47;;;2.80;;
6255;SDS011;3161;48.794;9.784;2023-02-26T06:57:25;3.63;;;1.90;;
6255;SDS011;3161;48.794;9.784;2023-02-26T06:59:53;7.20;;;3.00;;
6255;SDS011;3161;48.794;9.784;2023-02-26T07:02:21;6.07;;;2.20;;
6255;SDS011;3161;48.794;9.784;2023-02-26T07:04:49;3.73;;;2.13;;
6255;SDS011;3161;48.794;9.784;2023-02-26T07:07:17;4.27;;;1.83;;
6255;SDS011;3161;48.794;9.784;2023-02-26T07:09:44;5.50;;;2.53;;
6255;SDS011;3161;48.794;9.784;2023-02-26T07:12:12;5.73;;;2.83;;
6255;SDS011;3161;48.794;9.784;2023-02-26T07:14:40;4.00;;;1.80;;
6255;SDS011;3161;48.794;9.784;2023-02-26T07:17:11;3.30;;;2.03;;
6255;SDS011;3161;48.794;9.784;2023-02-26T07:19:43;6.10;;;1.93;;
6255;SDS011;3161;48.794;9.784;2023-02-26T07:22:11;4.40;;;1.73;;
6255;SDS011;3161;48.794;9.784;2023-02-26T07:24:38;5.87;;;2.17;;
6255;SDS011;3161;48.794;9.784;2023-02-26T07:27:06;1.83;;;1.40;;
6255;SDS011;3161;48.794;9.784;2023-02-26T07:29:34;5.13;;;1.63;;
6255;SDS011;3161;48.794;9.784;2023-02-26T07:32:02;1.77;;;1.50;;
6255;SDS011;3161;48.794;9.784;2023-02-26T07:34:31;2.77;;;1.80;;
6255;SDS011;3161;48.794;9.784;2023-02-26T07:36:58;15.17;;;4.13;;
6255;SDS011;3161;48.794;9.784;2023-02-26T07:39:26;10.93;;;3.97;;
6255;SDS011;3161;48.794;9.784;2023-02-26T07:41:54;4.30;;;2.07;;
6255;SDS011;3161;48.794;9.784;2023-02-26T07:44:21;9.10;;;2.63;;
6255;SDS011;3161;48.794;9.784;2023-02-26T07:46:49;6.27;;;2.33;;
6255;SDS011;3161;48.794;9.784;2023-02-26T07:49:16;9.00;;;2.00;;
6255;SDS011;3161;48.794;9.784;2023-02-26T07:51:44;5.40;;;2.47;;
6255;SDS011;3161;48.794;9.784;2023-02-26T07:54:13;6.87;;;1.97;;
6255;SDS011;3161;48.794;9.784;2023-02-26T07:56:41;2.83;;;1.40;;
6255;SDS011;3161;48.794;9.784;2023-02-26T08:01:56;4.73;;;1.80;;
6255;SDS011;3161;48.794;9.784;2023-02-26T08:07:10;9.30;;;2.33;;
6255;SDS011;3161;48.794;9.784;2023-02-26T08:09:38;12.83;;;1.77;;
6255;SDS011;3161;48.794;9.784;2023-02-26T08:12:05;7.00;;;1.60;;
6255;SDS011;3161;48.794;9.784;2023-02-26T08:14:33;2.80;;;1.30;;
6255;SDS011;3161;48.794;9.784;2023-02-26T08:17:00;4.40;;;2.13;;
6255;SDS011;3161;48.794;9.784;2023-02-26T08:19:28;9.03;;;2.13;;
6255;SDS011;3161;48.794;9.784;2023-02-26T08:21:57;4.40;;;1.87;;
6255;SDS011;3161;48.794;9.784;2023-02-26T08:24:26;5.63;;;1.83;;
6255;SDS011;3161;48.794;9.784;2023-02-26T08:26:53;6.63;;;2.27;;
6255;SDS011;3161;48.794;9.784;2023-02-26T08:29:21;8.77;;;2.00;;
6255;SDS011;3161;48.794;9.784;2023-02-26T08:31:50;3.87;;;1.87;;
6255;SDS011;3161;48.794;9.784;2023-02-26T08:34:17;2.20;;;1.30;;
6255;SDS011;3161;48.794;9.784;2023-02-26T08:36:45;8.27;;;1.80;;
6255;SDS011;3161;48.794;9.784;2023-02-26T08:39:13;6.40;;;2.53;;
6255;SDS011;3161;48.794;9.784;2023-02-26T08:41:40;2.00;;;1.47;;
6255;SDS011;3161;48.794;9.784;2023-02-26T08:44:08;2.60;;;1.90;;
6255;SDS011;3161;48.794;9.784;2023-02-26T08:46:35;6.67;;;2.40;;
6255;SDS011;3161;48.794;9.784;2023-02-26T08:49:03;8.40;;;2.43;;
6255;SDS011;3161;48.794;9.784;2023-02-26T08:51:31;6.63;;;3.30;;
6255;SDS011;3161;48.794;9.784;2023-02-26T08:53:58;4.83;;;2.40;;
6255;SDS011;3161;48.794;9.784;2023-02-26T08:56:26;4.40;;;1.90;;
6255;SDS011;3161;48.794;9.784;2023-02-26T08:58:53;3.93;;;2.07;;
6255;SDS011;3161;48.794;9.784;2023-02-26T09:01:21;1.87;;;1.47;;
6255;SDS011;3161;48.794;9.784;2023-02-26T09:03:48;3.13;;;1.87;;
6255;SDS011;3161;48.794;9.784;2023-02-26T09:06:16;3.50;;;2.07;;
6255;SDS011;3161;48.794;9.784;2023-02-26T09:08:43;6.27;;;2.57;;
6255;SDS011;3161;48.794;9.784;2023-02-26T09:11:11;2.00;;;1.50;;
6255;SDS011;3161;48.794;9.784;2023-02-26T09:13:38;2.53;;;1.40;;
6255;SDS011;3161;48.794;9.784;2023-02-26T09:16:06;3.57;;;1.80;;
6255;SDS011;3161;48.794;9.784;2023-02-26T09:18:34;1.97;;;1.27;;
6255;SDS011;3161;48.794;9.784;2023-02-26T09:21:01;1.87;;;1.30;;
6255;SDS011;3161;48.794;9.784;2023-02-26T09:23:29;3.33;;;1.90;;
6255;SDS011;3161;48.794;9.784;2023-02-26T09:25:57;3.00;;;1.20;;
6255;SDS011;3161;48.794;9.784;2023-02-26T09:28:25;2.37;;;1.13;;
6255;SDS011;3161;48.794;9.784;2023-02-26T09:30:53;3.27;;;2.03;;
6255;SDS011;3161;48.794;9.784;2023-02-26T09:33:21;1.87;;;1.30;;
6255;SDS011;3161;48.794;9.784;2023-02-26T09:35:50;4.73;;;1.40;;
6255;SDS011;3161;48.794;9.784;2023-02-26T09:38:17;2.10;;;1.30;;
6255;SDS011;3161;48.794;9.784;2023-02-26T09:40:53;1.20;;;1.10;;
6255;SDS011;3161;48.794;9.784;2023-02-26T09:45:56;2.27;;;1.20;;
6255;SDS011;3161;48.794;9.784;2023-02-26T09:48:25;1.10;;;1.00;;
6255;SDS011;3161;48.794;9.784;2023-02-26T09:50:56;1.67;;;1.40;;
6255;SDS011;3161;48.794;9.784;2023-02-26T09:53:28;0.97;;;0.97;;
6255;SDS011;3161;48.794;9.784;2023-02-26T09:56:18;0.90;;;0.90;;
6255;SDS011;3161;48.794;9.784;2023-02-26T09:58:47;1.80;;;1.03;;
6255;SDS011;3161;48.794;9.784;2023-02-26T10:01:21;1.83;;;1.07;;
6255;SDS011;3161;48.794;9.784;2023-02-26T10:06:32;1.20;;;1.20;;
6255;SDS011;3161;48.794;9.784;2023-02-26T10:09:20;1.73;;;1.00;;
6255;SDS011;3161;48.794;9.784;2023-02-26T10:11:59;1.53;;;1.37;;
6255;SDS011;3161;48.794;9.784;2023-02-26T10:14:34;1.30;;;1.20;;
6255;SDS011;3161;48.794;9.784;2023-02-26T10:17:18;1.40;;;1.30;;
6255;SDS011;3161;48.794;9.784;2023-02-26T10:19:50;3.20;;;1.50;;
6255;SDS011;3161;48.794;9.784;2023-02-26T10:22:21;1.07;;;1.07;;
6255;SDS011;3161;48.794;9.784;2023-02-26T10:25:14;2.07;;;1.20;;
6255;SDS011;3161;48.794;9.784;2023-02-26T10:30:34;1.97;;;1.20;;
6255;SDS011;3161;48.794;9.784;2023-02-26T10:33:06;7.13;;;1.30;;
6255;SDS011;3161;48.794;9.784;2023-02-26T10:35:38;4.40;;;1.73;;
6255;SDS011;3161;48.794;9.784;2023-02-26T10:38:10;0.93;;;0.90;;
6255;SDS011;3161;48.794;9.784;2023-02-26T10:40:46;2.83;;;1.33;;
6255;SDS011;3161;48.794;9.784;2023-02-26T10:43:38;1.40;;;1.30;;
6255;SDS011;3161;48.794;9.784;2023-02-26T10:46:24;1.30;;;1.20;;
6255;SDS011;3161;48.794;9.784;2023-02-26T10:51:44;3.27;;;1.33;;
6255;SDS011;3161;48.794;9.784;2023-02-26T10:54:14;1.57;;;1.40;;
6255;SDS011;3161;48.794;9.784;2023-02-26T10:56:54;1.13;;;1.07;;
6255;SDS011;3161;48.794;9.784;2023-02-26T10:59:22;3.30;;;1.10;;
6255;SDS011;3161;48.794;9.784;2023-02-26T11:01:50;3.10;;;1.33;;
6255;SDS011;3161;48.794;9.784;2023-02-26T11:04:20;2.17;;;1.30;;
6255;SDS011;3161;48.794;9.784;2023-02-26T11:07:03;1.03;;;1.00;;
6255;SDS011;3161;48.794;9.784;2023-02-26T11:09:30;3.47;;;1.30;;
6255;SDS011;3161;48.794;9.784;2023-02-26T11:14:44;5.30;;;1.40;;
6255;SDS011;3161;48.794;9.784;2023-02-26T11:17:24;1.90;;;0.97;;
6255;SDS011;3161;48.794;9.784;2023-02-26T11:20:00;2.60;;;1.37;;
6255;SDS011;3161;48.794;9.784;2023-02-26T11:22:33;1.57;;;1.37;;
6255;SDS011;3161;48.794;9.784;2023-02-26T11:25:02;5.03;;;1.30;;
6255;SDS011;3161;48.794;9.784;2023-02-26T11:27:33;0.90;;;0.90;;
6255;SDS011;3161;48.794;9.784;2023-02-26T11:30:09;1.00;;;1.00;;
6255;SDS011;3161;48.794;9.784;2023-02-26T11:32:34;2.03;;;1.40;;
6255;SDS011;3161;48.794;9.784;2023-02-26T11:35:06;1.23;;;1.17;;
6255;SDS011;3161;48.794;9.784;2023-02-26T11:37:35;3.90;;;1.43;;
6255;SDS011;3161;48.794;9.784;2023-02-26T11:42:47;1.03;;;1.03;;
6255;SDS011;3161;48.794;9.784;2023-02-26T11:45:20;2.40;;;1.00;;
6255;SDS011;3161;48.794;9.784;2023-02-26T11:47:51;1.30;;;0.97;;
6255;SDS011;3161;48.794;9.784;2023-02-26T11:50:27;1.17;;;1.07;;
6255;SDS011;3161;48.794;9.784;2023-02-26T11:53:03;1.43;;;1.00;;
6255;SDS011;3161;48.794;9.784;2023-02-26T11:55:37;1.53;;;0.80;;
6255;SDS011;3161;48.794;9.784;2023-02-26T11:58:17;1.20;;;1.10;;
6255;SDS011;3161;48.794;9.784;2023-02-26T12:00:52;3.83;;;1.10;;
6255;SDS011;3161;48.794;9.784;2023-02-26T12:03:22;1.07;;;0.90;;
6255;SDS011;3161;48.794;9.784;2023-02-26T12:05:53;1.30;;;1.20;;
6255;SDS011;3161;48.794;9.784;2023-02-26T12:08:24;1.10;;;1.10;;
6255;SDS011;3161;48.794;9.784;2023-02-26T12:13:39;1.10;;;1.00;;
6255;SDS011;3161;48.794;9.784;2023-02-26T12:22:20;1.20;;;1.10;;
6255;SDS011;3161;48.794;9.784;2023-02-26T12:36:06;3.03;;;1.00;;
6255;SDS011;3161;48.794;9.784;2023-02-26T12:39:03;1.37;;;0.80;;
6255;SDS011;3161;48.794;9.784;2023-02-26T12:41:43;1.00;;;0.90;;
6255;SDS011;3161;48.794;9.784;2023-02-26T12:49:46;1.87;;;1.50;;
6255;SDS011;3161;48.794;9.784;2023-02-26T12:58:52;1.03;;;0.87;;
6255;SDS011;3161;48.794;9.784;2023-02-26T13:00:37;1.57;;;0.70;;
6255;SDS011;3161;48.794;9.784;2023-02-26T13:06:13;0.77;;;0.77;;
6255;SDS011;3161;48.794;9.784;2023-02-26T13:17:23;0.83;;;0.80;;
6255;SDS011;3161;48.794;9.784;2023-02-26T13:20:14;1.10;;;0.77;;
6255;SDS011;3161;48.794;9.784;2023-02-26T13:22:47;0.80;;;0.80;;
6255;SDS011;3161;48.794;9.784;2023-02-26T13:27:56;1.37;;;0.70;;
6255;SDS011;3161;48.794;9.784;2023-02-26T13:30:31;0.70;;;0.70;;
6255;SDS011;3161;48.794;9.784;2023-02-26T13:33:01;0.60;;;0.60;;
6255;SDS011;3161;48.794;9.784;2023-02-26T13:35:37;0.50;;;0.50;;
6255;SDS011;3161;48.794;9.784;2023-02-26T13:38:29;0.63;;;0.63;;
6255;SDS011;3161;48.794;9.784;2023-02-26T13:41:08;2.10;;;0.80;;
6255;SDS011;3161;48.794;9.784;2023-02-26T13:51:57;0.80;;;0.70;;
6255;SDS011;3161;48.794;9.784;2023-02-26T14:02:52;4.97;;;1.87;;
6255;SDS011;3161;48.794;9.784;2023-02-26T14:05:35;3.03;;;0.93;;
6255;SDS011;3161;48.794;9.784;2023-02-26T14:10:57;4.60;;;1.10;;
6255;SDS011;3161;48.794;9.784;2023-02-26T14:13:35;1.80;;;0.73;;
6255;SDS011;3161;48.794;9.784;2023-02-26T14:16:10;2.43;;;1.50;;
6255;SDS011;3161;48.794;9.784;2023-02-26T14:24:01;0.83;;;0.60;;
6255;SDS011;3161;48.794;9.784;2023-02-26T14:26:36;0.80;;;0.70;;
6255;SDS011;3161;48.794;9.784;2023-02-26T14:34:15;0.80;;;0.80;;
6255;SDS011;3161;48.794;9.784;2023-02-26T14:36:55;0.80;;;0.80;;
6255;SDS011;3161;48.794;9.784;2023-02-26T14:39:29;1.40;;;0.80;;
6255;SDS011;3161;48.794;9.784;2023-02-26T14:41:59;0.60;;;0.60;;
6255;SDS011;3161;48.794;9.784;2023-02-26T14:44:39;0.50;;;0.50;;
6255;SDS011;3161;48.794;9.784;2023-02-26T14:47:05;1.00;;;0.90;;
6255;SDS011;3161;48.794;9.784;2023-02-26T14:49:34;0.67;;;0.60;;
6255;SDS011;3161;48.794;9.784;2023-02-26T14:55:00;2.03;;;0.83;;
6255;SDS011;3161;48.794;9.784;2023-02-26T14:57:40;0.97;;;0.83;;
6255;SDS011;3161;48.794;9.784;2023-02-26T15:00:21;1.13;;;0.97;;
6255;SDS011;3161;48.794;9.784;2023-02-26T15:03:02;0.73;;;0.70;;
6255;SDS011;3161;48.794;9.784;2023-02-26T15:08:24;1.90;;;0.70;;
6255;SDS011;3161;48.794;9.784;2023-02-26T15:13:41;1.47;;;1.00;;
6255;SDS011;3161;48.794;9.784;2023-02-26T15:16:24;2.07;;;0.80;;
6255;SDS011;3161;48.794;9.784;2023-02-26T15:24:12;1.97;;;1.20;;
6255;SDS011;3161;48.794;9.784;2023-02-26T15:26:44;0.73;;;0.73;;
6255;SDS011;3161;48.794;9.784;2023-02-26T15:29:12;1.83;;;1.27;;
6255;SDS011;3161;48.794;9.784;2023-02-26T15:31:42;2.13;;;1.30;;
6255;SDS011;3161;48.794;9.784;2023-02-26T15:34:13;4.33;;;1.47;;
6255;SDS011;3161;48.794;9.784;2023-02-26T15:36:43;3.03;;;1.37;;
6255;SDS011;3161;48.794;9.784;2023-02-26T15:39:12;2.80;;;1.20;;
6255;SDS011;3161;48.794;9.784;2023-02-26T15:41:42;1.93;;;1.03;;
6255;SDS011;3161;48.794;9.784;2023-02-26T15:44:13;5.93;;;1.40;;
6255;SDS011;3161;48.794;9.784;2023-02-26T15:46:46;5.87;;;1.50;;
6255;SDS011;3161;48.794;9.784;2023-02-26T15:49:36;1.70;;;1.00;;
6255;SDS011;3161;48.794;9.784;2023-02-26T15:52:02;0.70;;;0.70;;
6255;SDS011;3161;48.794;9.784;2023-02-26T15:54:34;3.13;;;1.00;;
6255;SDS011;3161;48.794;9.784;2023-02-26T15:57:06;3.00;;;0.80;;
6255;SDS011;3161;48.794;9.784;2023-02-26T15:59:35;2.57;;;1.20;;
6255;SDS011;3161;48.794;9.784;2023-02-26T16:02:13;2.03;;;1.17;;
6255;SDS011;3161;48.794;9.784;2023-02-26T16:04:42;2.30;;;1.10;;
6255;SDS011;3161;48.794;9.784;2023-02-26T16:07:10;2.83;;;1.20;;
6255;SDS011;3161;48.794;9.784;2023-02-26T16:09:40;2.67;;;0.90;;
6255;SDS011;3161;48.794;9.784;2023-02-26T16:12:11;2.17;;;1.07;;
6255;SDS011;3161;48.794;9.784;2023-02-26T16:14:42;4.20;;;1.10;;
6255;SDS011;3161;48.794;9.784;2023-02-26T16:17:13;1.80;;;0.87;;
6255;SDS011;3161;48.794;9.784;2023-02-26T16:19:45;0.60;;;0.60;;
6255;SDS011;3161;48.794;9.784;2023-02-26T16:22:24;2.00;;;0.70;;
6255;SDS011;3161;48.794;9.784;2023-02-26T16:25:07;0.50;;;0.50;;
6255;SDS011;3161;48.794;9.784;2023-02-26T16:27:37;2.10;;;0.87;;
6255;SDS011;3161;48.794;9.784;2023-02-26T16:30:06;0.70;;;0.60;;
6255;SDS011;3161;48.794;9.784;2023-02-26T16:32:36;0.60;;;0.60;;
6255;SDS011;3161;48.794;9.784;2023-02-26T16:35:15;1.00;;;0.90;;
6255;SDS011;3161;48.794;9.784;2023-02-26T16:37:46;4.63;;;1.20;;
6255;SDS011;3161;48.794;9.784;2023-02-26T16:48:12;1.33;;;0.93;;
6255;SDS011;3161;48.794;9.784;2023-02-26T16:51:00;0.90;;;0.80;;
6255;SDS011;3161;48.794;9.784;2023-02-26T16:53:35;0.80;;;0.80;;
6255;SDS011;3161;48.794;9.784;2023-02-26T16:56:00;0.60;;;0.60;;
6255;SDS011;3161;48.794;9.784;2023-02-26T16:58:29;0.93;;;0.83;;
6255;SDS011;3161;48.794;9.784;2023-02-26T17:01:06;2.57;;;0.83;;
6255;SDS011;3161;48.794;9.784;2023-02-26T17:03:31;0.80;;;0.80;;
6255;SDS011;3161;48.794;9.784;2023-02-26T17:06:03;1.23;;;0.90;;
6255;SDS011;3161;48.794;9.784;2023-02-26T17:08:33;0.90;;;0.90;;
6255;SDS011;3161;48.794;9.784;2023-02-26T17:11:05;2.33;;;0.80;;
6255;SDS011;3161;48.794;9.784;2023-02-26T17:13:35;3.20;;;1.20;;
6255;SDS011;3161;48.794;9.784;2023-02-26T17:16:04;3.13;;;1.50;;
6255;SDS011;3161;48.794;9.784;2023-02-26T17:18:33;4.40;;;1.50;;
6255;SDS011;3161;48.794;9.784;2023-02-26T17:21:01;0.90;;;0.90;;
6255;SDS011;3161;48.794;9.784;2023-02-26T17:23:32;1.13;;;1.00;;
6255;SDS011;3161;48.794;9.784;2023-02-26T17:26:02;3.17;;;1.20;;
6255;SDS011;3161;48.794;9.784;2023-02-26T17:28:32;1.23;;;1.00;;
6255;SDS011;3161;48.794;9.784;2023-02-26T17:31:02;1.00;;;0.80;;
6255;SDS011;3161;48.794;9.784;2023-02-26T17:33:30;1.53;;;0.97;;
6255;SDS011;3161;48.794;9.784;2023-02-26T17:35:58;2.50;;;0.80;;
6255;SDS011;3161;48.794;9.784;2023-02-26T17:38:27;3.63;;;0.80;;
6255;SDS011;3161;48.794;9.784;2023-02-26T17:40:57;2.50;;;1.13;;
6255;SDS011;3161;48.794;9.784;2023-02-26T17:43:25;1.20;;;0.93;;
6255;SDS011;3161;48.794;9.784;2023-02-26T17:45:53;0.80;;;0.70;;
6255;SDS011;3161;48.794;9.784;2023-02-26T17:48:21;1.07;;;0.60;;
6255;SDS011;3161;48.794;9.784;2023-02-26T17:50:50;1.27;;;0.80;;
6255;SDS011;3161;48.794;9.784;2023-02-26T17:53:20;0.80;;;0.50;;